createdAt,value
2022-07-28T00:00:00.135Z,8.70
2022-07-28T00:10:00.893Z,8.60
2022-07-28T00:20:00.153Z,4.90
2022-07-28T00:30:00.145Z,6.20
2022-07-28T00:40:00.097Z,7.40
2022-07-28T00:50:00.136Z,7.10
2022-07-28T01:00:00.127Z,5.90
2022-07-28T01:10:00.154Z,6.70
2022-07-28T01:20:00.131Z,7.30
2022-07-28T01:30:00.101Z,9.30
2022-07-28T01:40:00.135Z,11.00
2022-07-28T01:50:00.113Z,8.30
2022-07-28T02:00:00.104Z,4.70
2022-07-28T02:10:00.139Z,6.90
2022-07-28T02:20:00.083Z,11.20
2022-07-28T02:30:00.090Z,7.90
2022-07-28T02:40:00.777Z,10.30
2022-07-28T02:50:00.137Z,9.90
2022-07-28T03:00:00.137Z,5.60
2022-07-28T03:10:00.125Z,6.80
2022-07-28T03:20:00.113Z,7.00
2022-07-28T03:30:03.560Z,8.70
2022-07-28T03:40:00.120Z,7.00
2022-07-28T03:50:00.121Z,8.00
2022-07-28T04:00:00.130Z,4.90
2022-07-28T04:10:00.107Z,12.10
2022-07-28T04:20:00.117Z,4.00
2022-07-28T04:30:00.121Z,7.00
2022-07-28T04:40:00.147Z,9.20
2022-07-28T04:50:00.135Z,9.70
2022-07-28T05:00:00.577Z,7.70
2022-07-28T05:10:00.125Z,6.90
2022-07-28T05:20:00.124Z,10.10
2022-07-28T05:30:00.117Z,5.00
2022-07-28T05:40:00.132Z,9.80
2022-07-28T05:50:00.112Z,8.00
2022-07-28T06:00:00.107Z,7.70
2022-07-28T06:10:00.302Z,7.80
2022-07-28T06:20:00.141Z,6.90
2022-07-28T06:30:00.112Z,9.40
2022-07-28T06:40:00.142Z,7.00
2022-07-28T06:50:00.135Z,11.50
2022-07-28T07:00:00.138Z,5.10
2022-07-28T07:10:00.116Z,9.20
2022-07-28T07:20:00.119Z,9.30
2022-07-28T07:30:00.101Z,8.80
2022-07-28T07:40:00.166Z,4.90
2022-07-28T07:50:03.821Z,6.50
2022-07-28T08:00:00.103Z,5.90
2022-07-28T08:10:00.569Z,7.70
2022-07-28T08:20:00.123Z,7.80
2022-07-28T08:30:00.158Z,7.40
2022-07-28T08:40:00.092Z,10.20
2022-07-28T08:50:00.091Z,7.60
2022-07-28T09:00:00.141Z,5.80
2022-07-28T09:10:02.290Z,8.30
2022-07-28T09:20:00.115Z,9.10
2022-07-28T09:30:00.157Z,3.70
2022-07-28T09:40:00.110Z,4.20
2022-07-28T09:50:00.255Z,7.60
2022-07-28T10:00:00.136Z,8.40
2022-07-28T10:10:00.149Z,5.90
2022-07-28T10:20:00.136Z,6.60
2022-07-28T10:30:00.170Z,5.60
2022-07-28T10:40:00.120Z,4.80
2022-07-28T10:50:00.104Z,6.50
2022-07-28T11:00:02.718Z,10.20
2022-07-28T11:10:00.109Z,7.30
2022-07-28T11:20:16.568Z,416.80
2022-07-28T11:30:00.146Z,235.70
2022-07-28T11:40:00.105Z,175.40
2022-07-28T11:50:00.116Z,155.10
2022-07-28T12:00:00.181Z,115.40
2022-07-28T12:10:00.112Z,143.00
2022-07-28T12:20:00.134Z,135.20
2022-07-28T12:30:00.159Z,134.80
2022-07-28T12:40:00.137Z,180.60
2022-07-28T12:50:03.644Z,186.50
2022-07-28T13:00:00.137Z,156.50
2022-07-28T13:10:00.862Z,140.20
2022-07-28T13:20:00.604Z,119.10
2022-07-28T13:30:02.141Z,119.90
2022-07-28T13:40:00.125Z,111.50
2022-07-28T13:50:00.150Z,93.80
2022-07-28T14:00:00.145Z,79.00
2022-07-28T14:10:00.139Z,110.40
2022-07-28T14:20:00.135Z,115.70
2022-07-28T14:30:03.302Z,98.60
2022-07-28T14:40:00.134Z,96.60
2022-07-28T14:50:00.136Z,98.70
2022-07-28T15:00:00.173Z,100.90
2022-07-28T15:10:00.122Z,120.70
2022-07-28T15:20:00.149Z,114.80
2022-07-28T15:30:02.418Z,81.50
2022-07-28T15:40:00.316Z,77.50
2022-07-28T15:50:00.105Z,70.10
2022-07-28T16:00:00.139Z,89.20
2022-07-28T16:10:00.159Z,113.90
2022-07-28T16:20:02.185Z,117.60
2022-07-28T16:30:00.141Z,115.30
2022-07-28T16:40:00.171Z,134.30
2022-07-28T16:50:00.122Z,116.80
2022-07-28T17:00:00.157Z,146.50
2022-07-28T17:10:00.125Z,114.00
2022-07-28T17:20:00.108Z,170.60
2022-07-28T17:30:00.132Z,155.30
2022-07-28T17:40:00.107Z,124.60
2022-07-28T17:50:00.138Z,61.90
2022-07-28T18:00:00.155Z,83.30
2022-07-28T18:10:00.113Z,109.50
2022-07-28T18:20:00.157Z,78.20
2022-07-28T18:30:00.152Z,73.80
2022-07-28T18:40:00.148Z,51.20
2022-07-28T18:50:00.151Z,22.30
2022-07-28T19:00:00.175Z,10.70
2022-07-28T19:10:00.107Z,9.80
2022-07-28T19:20:00.120Z,15.90
2022-07-28T19:30:01.499Z,8.70
2022-07-28T19:40:00.134Z,23.80
2022-07-28T19:50:00.141Z,53.20
2022-07-28T20:00:00.173Z,16.00
2022-07-28T20:10:00.124Z,34.10
2022-07-28T20:20:00.139Z,18.10
2022-07-28T20:30:00.154Z,12.00
2022-07-28T20:40:00.117Z,10.10
2022-07-28T20:50:00.136Z,12.00
2022-07-28T21:00:00.144Z,8.30
2022-07-28T21:10:00.124Z,8.40
2022-07-28T21:20:02.539Z,9.60
2022-07-28T21:30:00.138Z,5.20
2022-07-28T21:40:04.469Z,12.80
2022-07-28T21:50:00.133Z,11.90
2022-07-28T22:00:00.163Z,6.60
2022-07-28T22:10:01.184Z,8.30
2022-07-28T22:20:00.144Z,4.50
2022-07-28T22:30:00.139Z,9.20
2022-07-28T22:40:00.959Z,7.90
2022-07-28T22:50:00.121Z,4.70
2022-07-28T23:00:00.141Z,8.30
2022-07-28T23:10:00.129Z,5.10
2022-07-28T23:20:00.135Z,8.70
2022-07-28T23:30:00.167Z,4.80
2022-07-28T23:40:00.123Z,5.90
2022-07-28T23:50:00.127Z,7.00
